Time;durP1;ratioP1;P1;durP2;ratioP2;P2;SDS_P1;SDS_P2;PMS_P1;PMS_P2;Temp;Humidity;BMP_temperature;BMP_pressure;BME280_temperature;BME280_humidity;BME280_pressure;Samples;Min_cycle;Max_cycle;Signal;HPM_P1;HPM_P2
2022/10/27 00:00:49;;;;;;;11.70;4.95;;;;;;;;;;6121117;23;20104;-77
2022/10/27 00:03:16;;;;;;;6.50;3.72;;;;;;;;;;6120441;23;20083;-77
2022/10/27 00:05:43;;;;;;;8.25;3.85;;;;;;;;;;6119976;23;20029;-77
2022/10/27 00:08:12;;;;;;;12.63;4.78;;;;;;;;;;6071530;23;20017;-77
2022/10/27 00:10:41;;;;;;;10.65;5.15;;;;;;;;;;6119927;23;20033;-77
2022/10/27 00:13:07;;;;;;;13.15;5.00;;;;;;;;;;6094952;23;20010;-77
2022/10/27 00:15:33;;;;;;;7.40;4.60;;;;;;;;;;6119087;23;20321;-77
2022/10/27 00:17:59;;;;;;;5.82;3.75;;;;;;;;;;6120523;23;20018;-77
2022/10/27 00:20:25;;;;;;;10.75;4.57;;;;;;;;;;6119194;23;20826;-77
2022/10/27 00:22:51;;;;;;;7.80;4.53;;;;;;;;;;6071739;23;20029;-77
2022/10/27 00:25:17;;;;;;;9.63;4.18;;;;;;;;;;6119736;23;20100;-77
2022/10/27 00:27:43;;;;;;;7.30;4.70;;;;;;;;;;6119449;23;20034;-77
2022/10/27 00:30:10;;;;;;;11.70;4.85;;;;;;;;;;6095185;23;20024;-77
2022/10/27 00:32:36;;;;;;;18.02;5.95;;;;;;;;;;6094725;23;20010;-77
2022/10/27 00:35:02;;;;;;;9.05;4.80;;;;;;;;;;6120331;23;20013;-77
2022/10/27 00:37:28;;;;;;;9.27;4.55;;;;;;;;;;6120400;23;20331;-77
2022/10/27 00:39:54;;;;;;;11.38;6.25;;;;;;;;;;6095578;23;20021;-77
2022/10/27 00:42:20;;;;;;;14.45;5.75;;;;;;;;;;6120465;23;20456;-77
2022/10/27 00:44:47;;;;;;;11.80;6.00;;;;;;;;;;6119845;23;20062;-77
2022/10/27 00:47:24;;;;;;;19.75;5.78;;;;;;;;;;6119283;23;20024;-77
2022/10/27 00:49:53;;;;;;;9.80;5.60;;;;;;;;;;6119822;23;20014;-77
2022/10/27 00:52:25;;;;;;;14.07;6.47;;;;;;;;;;6119300;23;20068;-77
2022/10/27 00:54:52;;;;;;;11.82;6.45;;;;;;;;;;6119981;23;20025;-77
2022/10/27 00:57:18;;;;;;;13.75;5.10;;;;;;;;;;6071628;23;20023;-77
2022/10/27 00:59:44;;;;;;;15.13;6.30;;;;;;;;;;6120891;23;20046;-77
2022/10/27 01:02:10;;;;;;;10.77;5.90;;;;;;;;;;6120074;23;20018;-77
2022/10/27 01:04:40;;;;;;;9.73;5.07;;;;;;;;;;6119621;23;20410;-77
2022/10/27 01:07:06;;;;;;;14.65;5.85;;;;;;;;;;6119898;23;20049;-77
2022/10/27 01:09:32;;;;;;;13.80;6.50;;;;;;;;;;6120063;23;20014;-77
2022/10/27 01:11:59;;;;;;;19.08;6.82;;;;;;;;;;6120221;23;20018;-77
2022/10/27 01:14:25;;;;;;;12.45;5.45;;;;;;;;;;6119368;23;20014;-77
2022/10/27 01:17:10;;;;;;;11.45;5.03;;;;;;;;;;6119774;23;20041;-77
2022/10/27 01:19:36;;;;;;;7.97;5.35;;;;;;;;;;6119931;23;20010;-77
2022/10/27 01:22:08;;;;;;;8.52;4.90;;;;;;;;;;6120245;23;20088;-77
2022/10/27 01:24:42;;;;;;;15.57;6.45;;;;;;;;;;6116243;23;20369;-77
2022/10/27 01:27:19;;;;;;;8.77;5.72;;;;;;;;;;6071996;23;20036;-77
2022/10/27 01:29:45;;;;;;;12.63;6.68;;;;;;;;;;6120020;23;20036;-77
2022/10/27 01:32:23;;;;;;;12.43;6.00;;;;;;;;;;6118711;23;20019;-77
2022/10/27 01:34:53;;;;;;;10.10;5.75;;;;;;;;;;6119696;23;20017;-77
2022/10/27 01:37:20;;;;;;;16.67;7.97;;;;;;;;;;6093790;23;20519;-77
2022/10/27 01:39:53;;;;;;;13.15;8.05;;;;;;;;;;6119597;23;20050;-77
2022/10/27 01:42:27;;;;;;;14.60;7.18;;;;;;;;;;6119555;23;20058;-77
2022/10/27 01:44:54;;;;;;;13.85;8.38;;;;;;;;;;6071926;23;20029;-77
2022/10/27 01:47:21;;;;;;;13.70;7.90;;;;;;;;;;6119515;23;20080;-77
2022/10/27 01:49:47;;;;;;;13.57;8.13;;;;;;;;;;6119281;23;20475;-77
2022/10/27 01:52:32;;;;;;;15.07;8.73;;;;;;;;;;6094988;23;20073;-77
2022/10/27 01:54:58;;;;;;;16.50;9.27;;;;;;;;;;6119448;23;20018;-77
2022/10/27 01:57:28;;;;;;;12.48;9.55;;;;;;;;;;6119356;23;20093;-77
2022/10/27 01:59:54;;;;;;;12.73;8.23;;;;;;;;;;6119089;23;20018;-77
2022/10/27 02:02:20;;;;;;;14.98;9.13;;;;;;;;;;6119302;23;20017;-77
2022/10/27 02:04:52;;;;;;;15.18;9.48;;;;;;;;;;6120187;23;20029;-77
2022/10/27 02:07:24;;;;;;;16.80;9.13;;;;;;;;;;6097164;23;20014;-77
2022/10/27 02:09:53;;;;;;;13.27;9.30;;;;;;;;;;6121178;23;20029;-77
2022/10/27 02:12:33;;;;;;;21.60;10.73;;;;;;;;;;6121145;23;20030;-77
2022/10/27 02:15:01;;;;;;;11.07;8.00;;;;;;;;;;6121597;23;20014;-77
2022/10/27 02:17:30;;;;;;;11.38;9.00;;;;;;;;;;6120804;23;20361;-77
2022/10/27 02:19:58;;;;;;;17.70;9.98;;;;;;;;;;6120921;23;20809;-77
2022/10/27 02:22:26;;;;;;;17.20;10.20;;;;;;;;;;6072854;23;20018;-77
2022/10/27 02:24:52;;;;;;;13.98;8.68;;;;;;;;;;6119564;23;20022;-77
2022/10/27 02:27:24;;;;;;;11.95;8.05;;;;;;;;;;6121037;23;20052;-77
2022/10/27 02:29:53;;;;;;;11.98;8.00;;;;;;;;;;6121013;23;20014;-77
2022/10/27 02:32:20;;;;;;;14.75;10.35;;;;;;;;;;6120636;23;20029;-77
2022/10/27 02:34:47;;;;;;;14.35;7.88;;;;;;;;;;6121497;23;20017;-77
2022/10/27 02:37:19;;;;;;;14.57;9.43;;;;;;;;;;6120898;23;20357;-77
2022/10/27 02:39:45;;;;;;;15.73;9.98;;;;;;;;;;6120969;23;20018;-77
2022/10/27 02:42:11;;;;;;;12.57;9.30;;;;;;;;;;6097162;23;20093;-77
2022/10/27 02:44:37;;;;;;;19.73;9.20;;;;;;;;;;6120598;23;20025;-77
2022/10/27 02:47:03;;;;;;;15.75;8.75;;;;;;;;;;6120575;23;20041;-77
2022/10/27 02:49:29;;;;;;;9.50;7.90;;;;;;;;;;6121275;23;20049;-77
2022/10/27 02:51:55;;;;;;;14.05;8.73;;;;;;;;;;6096736;23;20021;-77
2022/10/27 02:54:21;;;;;;;12.13;8.60;;;;;;;;;;6120997;23;20306;-77
2022/10/27 02:56:47;;;;;;;13.82;9.05;;;;;;;;;;6120982;23;20469;-77
2022/10/27 02:59:13;;;;;;;14.20;9.52;;;;;;;;;;6096664;23;20010;-77
2022/10/27 03:01:40;;;;;;;14.48;9.63;;;;;;;;;;6121020;23;20153;-77
2022/10/27 03:04:06;;;;;;;12.85;8.80;;;;;;;;;;6072089;23;20165;-77
2022/10/27 03:06:32;;;;;;;11.50;8.63;;;;;;;;;;6121488;23;20021;-77
2022/10/27 03:08:58;;;;;;;12.73;9.40;;;;;;;;;;6096533;23;20033;-77
2022/10/27 03:11:24;;;;;;;17.30;10.07;;;;;;;;;;6119843;23;20093;-77
2022/10/27 03:13:50;;;;;;;13.32;8.73;;;;;;;;;;6095902;23;20475;-77
2022/10/27 03:16:16;;;;;;;15.05;8.98;;;;;;;;;;6120900;23;20117;-77
2022/10/27 03:18:42;;;;;;;15.02;9.73;;;;;;;;;;6096718;23;20479;-77
2022/10/27 03:21:08;;;;;;;19.92;10.80;;;;;;;;;;6121097;23;20076;-77
2022/10/27 03:23:34;;;;;;;23.67;9.68;;;;;;;;;;6121388;23;20080;-77
2022/10/27 03:26:01;;;;;;;17.08;9.43;;;;;;;;;;6120071;23;20064;-77
2022/10/27 03:28:34;;;;;;;12.63;9.18;;;;;;;;;;6119619;23;20353;-77
2022/10/27 03:31:00;;;;;;;15.48;9.88;;;;;;;;;;6119659;23;20049;-77
2022/10/27 03:33:26;;;;;;;13.60;9.90;;;;;;;;;;6095618;23;20030;-77
2022/10/27 03:35:52;;;;;;;11.43;8.80;;;;;;;;;;6119317;23;20393;-77
2022/10/27 03:38:18;;;;;;;13.48;9.45;;;;;;;;;;6120345;23;20693;-77
2022/10/27 03:40:44;;;;;;;14.23;9.50;;;;;;;;;;6120012;23;20017;-77
2022/10/27 03:43:10;;;;;;;10.95;7.75;;;;;;;;;;6120062;23;20022;-77
2022/10/27 03:45:36;;;;;;;13.02;9.10;;;;;;;;;;6096152;23;20645;-77
2022/10/27 03:48:04;;;;;;;15.85;9.38;;;;;;;;;;6121111;23;20045;-77
2022/10/27 03:50:30;;;;;;;10.32;8.45;;;;;;;;;;6120250;23;20465;-77
2022/10/27 03:52:56;;;;;;;12.93;9.45;;;;;;;;;;6120878;23;20021;-77
2022/10/27 03:55:22;;;;;;;14.57;8.95;;;;;;;;;;6120620;23;20014;-77
2022/10/27 03:57:49;;;;;;;13.93;8.80;;;;;;;;;;6095694;23;20101;-77
2022/10/27 04:00:15;;;;;;;12.95;8.65;;;;;;;;;;6095192;23;20013;-77
2022/10/27 04:02:41;;;;;;;16.92;9.80;;;;;;;;;;6071575;23;20056;-77
2022/10/27 04:05:07;;;;;;;14.32;8.77;;;17.30;99.90;;;;;;6118619;23;20021;-77
2022/10/27 04:07:34;;;;;;;14.32;8.25;;;;;;;;;;6070591;23;20076;-77
2022/10/27 04:10:00;;;;;;;11.85;8.57;;;;;;;;;;6094175;23;20093;-77
2022/10/27 04:12:26;;;;;;;13.68;8.55;;;;;;;;;;6094734;23;20014;-77
2022/10/27 04:14:52;;;;;;;14.30;8.73;;;;;;;;;;6120384;23;20500;-77
2022/10/27 04:17:18;;;;;;;11.68;8.05;;;;;;;;;;6119694;23;20080;-77
2022/10/27 04:19:44;;;;;;;12.85;8.38;;;;;;;;;;6095521;23;20014;-77
2022/10/27 04:22:11;;;;;;;12.05;7.35;;;;;;;;;;6120387;23;20495;-77
2022/10/27 04:24:39;;;;;;;12.02;8.55;;;;;;;;;;6119824;23;20026;-77
2022/10/27 04:27:09;;;;;;;10.77;7.85;;;;;;;;;;6094576;23;20445;-77
2022/10/27 04:29:35;;;;;;;9.70;7.70;;;;;;;;;;6096118;23;20014;-77
2022/10/27 04:32:01;;;;;;;15.10;9.32;;;;;;;;;;6119881;23;20025;-76
2022/10/27 04:34:27;;;;;;;12.20;8.32;;;;;;;;;;6095285;23;20018;-76
2022/10/27 04:36:54;;;;;;;10.65;7.90;;;;;;;;;;6120478;23;20017;-77
2022/10/27 04:39:20;;;;;;;11.32;8.57;;;;;;;;;;6120403;23;20034;-77
2022/10/27 04:41:46;;;;;;;12.32;7.82;;;;;;;;;;6120364;23;20033;-77
2022/10/27 04:44:12;;;;;;;13.15;8.55;;;;;;;;;;6092446;23;20103;-77
2022/10/27 04:46:38;;;;;;;13.23;7.85;;;;;;;;;;6094181;23;20316;-77
2022/10/27 04:49:04;;;;;;;11.13;8.23;;;;;;;;;;6118394;23;20050;-77
2022/10/27 04:51:31;;;;;;;15.35;8.85;;;;;;;;;;6095048;23;20087;-77
2022/10/27 04:53:57;;;;;;;16.58;8.55;;;;;;;;;;6119111;23;20372;-77
2022/10/27 04:56:23;;;;;;;12.93;7.80;;;;;;;;;;6119890;23;20080;-77
2022/10/27 04:58:49;;;;;;;12.95;7.80;;;;;;;;;;6095083;23;20014;-77
2022/10/27 05:01:15;;;;;;;14.05;7.50;;;;;;;;;;6119683;23;20029;-77
2022/10/27 05:03:41;;;;;;;11.73;7.97;;;;;;;;;;6095239;23;20014;-77
2022/10/27 05:06:07;;;;;;;13.75;8.90;;;;;;;;;;6119558;23;20342;-77
2022/10/27 05:08:33;;;;;;;12.68;7.95;;;;;;;;;;6118679;23;20523;-77
2022/10/27 05:10:59;;;;;;;16.17;9.30;;;;;;;;;;6118100;23;20053;-77
2022/10/27 05:13:25;;;;;;;14.98;8.20;;;;;;;;;;6118528;23;20072;-77
2022/10/27 05:15:51;;;;;;;11.07;7.22;;;;;;;;;;6118722;23;20505;-77
2022/10/27 05:18:18;;;;;;;10.98;7.75;;;;;;;;;;6118610;23;20108;-77
2022/10/27 05:20:44;;;;;;;12.35;7.97;;;;;;;;;;6118357;23;20666;-77
2022/10/27 05:23:10;;;;;;;17.98;8.25;;;;;;;;;;6117642;23;20472;-77
2022/10/27 05:25:36;;;;;;;17.35;8.60;;;;;;;;;;6118374;23;20445;-77
2022/10/27 05:28:10;;;;;;;14.00;8.60;;;;;;;;;;6094512;23;20018;-77
2022/10/27 05:30:36;;;;;;;20.40;8.35;;;;;;;;;;6119067;23;20018;-76
2022/10/27 05:33:03;;;;;;;10.93;7.70;;;;;;;;;;6119009;23;20145;-77
2022/10/27 05:35:29;;;;;;;16.30;8.23;;;;;;;;;;6118577;23;20024;-77
2022/10/27 05:37:55;;;;;;;10.73;7.88;;;;;;;;;;6118587;23;20396;-77
2022/10/27 05:40:21;;;;;;;19.23;7.78;;;;;;;;;;6094641;23;20076;-76
2022/10/27 05:42:52;;;;;;;12.82;7.97;;;;;;;;;;6095050;23;20192;-76
2022/10/27 05:45:18;;;;;;;14.98;7.60;;;;;;;;;;6119239;23;20426;-75
2022/10/27 05:47:44;;;;;;;9.68;7.20;;;;;;;;;;6119162;23;20483;-77
2022/10/27 05:50:11;;;;;;;13.50;8.82;;;;;;;;;;6119135;23;20341;-77
2022/10/27 05:52:37;;;;;;;12.77;7.40;;;;;;;;;;6093680;23;20014;-76
2022/10/27 05:55:03;;;;;;;11.60;7.80;;;;;;;;;;6093660;23;20028;-76
2022/10/27 05:57:29;;;;;;;12.68;7.38;;;;;;;;;;6118021;23;20025;-76
2022/10/27 05:59:55;;;;;;;10.52;7.65;;;;;;;;;;6093801;23;20444;-76
2022/10/27 06:02:21;;;;;;;13.88;8.50;;;;;;;;;;6118188;23;20089;-76
2022/10/27 06:04:47;;;;;;;11.90;8.32;;;;;;;;;;6117784;23;20017;-76
2022/10/27 06:07:13;;;;;;;19.73;8.13;;;;;;;;;;6118669;23;20038;-76
2022/10/27 06:09:39;;;;;;;14.50;6.97;;;;;;;;;;6094982;23;20021;-77
2022/10/27 06:12:05;;;;;;;14.15;8.88;;;;;;;;;;6118852;23;20018;-75
2022/10/27 06:14:31;;;;;;;12.15;7.60;;;;;;;;;;6095266;23;20014;-76
2022/10/27 06:16:58;;;;;;;11.73;8.30;;;;;;;;;;6120731;23;20065;-77
2022/10/27 06:19:24;;;;;;;11.13;8.38;;;;;;;;;;6118730;23;20052;-77
2022/10/27 06:21:50;;;;;;;12.00;7.20;;;;;;;;;;6118786;23;20096;-77
2022/10/27 06:24:17;;;;;;;10.82;7.45;;;;;;;;;;6119068;23;20025;-77
2022/10/27 06:26:43;;;;;;;13.63;7.68;;;;;;;;;;6119951;23;20449;-77
2022/10/27 06:29:09;;;;;;;12.35;7.78;;;;;;;;;;6118963;23;20013;-76
2022/10/27 06:31:36;;;;;;;12.77;8.40;;;;;;;;;;6118638;23;20025;-77
2022/10/27 06:34:03;;;;;;;11.15;7.70;;;;;;;;;;6118008;23;20048;-76
2022/10/27 06:36:29;;;;;;;13.90;7.53;;;;;;;;;;6114768;23;20149;-76
2022/10/27 06:38:55;;;;;;;12.52;7.13;;;;;;;;;;6114470;23;20013;-76
2022/10/27 06:41:21;;;;;;;17.45;8.10;;;;;;;;;;6090083;23;20070;-76
2022/10/27 06:43:47;;;;;;;13.02;7.63;;;;;;;;;;6114660;23;20022;-76
2022/10/27 06:46:13;;;;;;;9.85;7.60;;;;;;;;;;6114780;23;20018;-76
2022/10/27 06:48:39;;;;;;;11.77;8.00;;;;;;;;;;6114133;23;20333;-76
2022/10/27 06:51:05;;;;;;;13.27;9.05;;;;;;;;;;6115747;23;20056;-76
2022/10/27 06:53:32;;;;;;;12.65;8.20;;;;;;;;;;6116472;23;20072;-77
2022/10/27 06:55:58;;;;;;;13.63;7.93;;;;;;;;;;6116427;23;20109;-76
2022/10/27 06:58:24;;;;;;;15.10;8.18;;;;;;;;;;6092563;23;20021;-76
2022/10/27 07:00:50;;;;;;;13.82;8.48;;;;;;;;;;6116552;23;20105;-76
2022/10/27 07:03:16;;;;;;;12.07;7.93;;;;;;;;;;6092255;23;20275;-76
2022/10/27 07:05:42;;;;;;;15.55;8.65;;;;;;;;;;6116237;23;20026;-76
2022/10/27 07:08:08;;;;;;;10.65;7.82;;;;;;;;;;6116869;23;20352;-76
2022/10/27 07:10:34;;;;;;;11.65;8.52;;;;;;;;;;6116463;23;20018;-79
2022/10/27 07:13:01;;;;;;;11.73;8.68;;;;;;;;;;6068205;23;20025;-79
2022/10/27 07:15:32;;;;;;;12.48;8.35;;;;;;;;;;6115537;23;20075;-79
2022/10/27 07:17:59;;;;;;;10.68;8.30;;;;;;;;;;6115822;23;20401;-79
2022/10/27 07:20:25;;;;;;;11.95;9.13;;;;;;;;;;6116545;23;20013;-80
2022/10/27 07:22:51;;;;;;;12.65;8.57;;;;;;;;;;6117334;23;20335;-77
2022/10/27 07:25:17;;;;;;;16.13;8.95;;;;;;;;;;6112604;23;20089;-78
2022/10/27 07:27:52;;;;;;;12.88;9.65;;;;;;;;;;6115186;23;20273;-78
2022/10/27 07:30:18;;;;;;;14.10;9.80;;;;;;;;;;6068606;23;20028;-78
2022/10/27 07:32:44;;;;;;;10.68;8.60;;;;;;;;;;6116073;23;20033;-77
2022/10/27 07:35:12;;;;;;;12.85;9.32;;;;;;;;;;6116017;23;20254;-78
2022/10/27 07:37:42;;;;;;;16.67;8.60;;;;;;;;;;6092364;23;20054;-78
2022/10/27 07:40:09;;;;;;;16.80;8.40;;;;;;;;;;6116765;23;20444;-78
2022/10/27 07:42:45;;;;;;;11.25;7.38;;;;;;;;;;6068324;23;20068;-78
2022/10/27 07:45:12;;;;;;;15.35;8.73;;;;;;;;;;6091198;23;20024;-78
2022/10/27 07:47:41;;;;;;;10.80;7.90;;;;;;;;;;6115455;23;20535;-77
2022/10/27 07:50:08;;;;;;;14.30;8.20;;;;;;;;;;6116381;23;20468;-78
2022/10/27 07:52:36;;;;;;;18.20;8.57;;;;;;;;;;6116088;23;20018;-77
2022/10/27 07:55:02;;;;;;;11.73;8.00;;;;;;;;;;6091290;23;20022;-77
2022/10/27 07:57:29;;;;;;;18.77;8.85;;;;;;;;;;6091886;23;20025;-77
2022/10/27 07:59:55;;;;;;;17.30;7.18;;;;;;;;;;6116242;23;20025;-78
2022/10/27 08:02:21;;;;;;;11.10;6.68;;;;;;;;;;6115932;23;20018;-78
2022/10/27 08:04:47;;;;;;;14.05;6.80;;;;;;;;;;6116000;23;20025;-78
2022/10/27 08:07:13;;;;;;;11.07;7.13;;;;;;;;;;6116251;23;20176;-78
2022/10/27 08:09:40;;;;;;;9.90;6.30;;;;;;;;;;6091193;23;20024;-78
2022/10/27 08:12:06;;;;;;;8.45;6.35;;;;;;;;;;6091665;23;20014;-78
2022/10/27 08:14:32;;;;;;;12.50;6.32;;;;;;;;;;6116302;23;20404;-78
2022/10/27 08:16:58;;;;;;;9.60;6.57;;;;;;;;;;6115862;23;20184;-78
2022/10/27 08:19:24;;;;;;;9.32;6.45;;;;;;;;;;6115341;23;20025;-78
2022/10/27 08:21:50;;;;;;;8.75;5.82;;;;;;;;;;6115886;23;20022;-78
2022/10/27 08:24:16;;;;;;;9.13;5.95;;;13.90;99.90;;;;;;6115369;23;20065;-78
2022/10/27 08:26:42;;;;;;;11.10;7.30;;;14.40;99.90;;;;;;6115512;23;20014;-78
2022/10/27 08:29:07;;;;;;;9.40;5.63;;;14.40;99.90;;;;;;6091759;23;20017;-78
2022/10/27 08:31:33;;;;;;;7.38;5.15;;;14.40;99.90;;;;;;6115499;23;20423;-78
2022/10/27 08:33:59;;;;;;;9.85;5.78;;;14.40;99.90;;;;;;6091191;23;20009;-78
2022/10/27 08:36:24;;;;;;;8.73;5.40;;;14.50;99.90;;;;;;6067315;23;20471;-78
2022/10/27 08:38:50;;;;;;;8.15;5.00;;;14.50;99.90;;;;;;6115975;23;20041;-78
2022/10/27 08:41:29;;;;;;;7.40;4.95;;;14.60;99.90;;;;;;6089992;23;20025;-78
2022/10/27 08:44:07;;;;;;;9.50;4.90;;;14.60;99.90;;;;;;6115508;23;20480;-78
2022/10/27 08:46:42;;;;;;;9.23;5.75;;;14.70;99.90;;;;;;6115869;23;20472;-78
2022/10/27 08:49:30;;;;;;;8.05;5.53;;;14.80;99.90;;;;;;6115207;23;20393;-78
2022/10/27 08:52:25;;;;;;;6.90;4.70;;;14.90;99.90;;;;;;6115281;23;20072;-78
2022/10/27 08:54:54;;;;;;;9.52;5.35;;;14.90;99.90;;;;;;6115048;23;20018;-78
2022/10/27 08:57:26;;;;;;;9.48;5.03;;;15.00;99.90;;;;;;6115252;23;20530;-78
2022/10/27 08:59:55;;;;;;;8.60;4.57;;;15.10;99.90;;;;;;6115712;23;20022;-78
2022/10/27 09:02:31;;;;;;;8.88;5.20;;;;;;;;;;6091085;23;20025;-78
2022/10/27 09:05:07;;;;;;;7.13;4.68;;;;;;;;;;6090535;23;20022;-78
2022/10/27 09:07:33;;;;;;;8.13;5.00;;;;;;;;;;6115648;23;20157;-78
2022/10/27 09:10:00;;;;;;;8.75;4.03;;;;;;;;;;6115368;23;20466;-78
2022/10/27 09:12:46;;;;;;;5.40;4.30;;;;;;;;;;6115199;23;20081;-78
2022/10/27 09:15:19;;;;;;;9.02;4.93;;;;;;;;;;6114922;23;20014;-78
2022/10/27 09:17:48;;;;;;;10.27;4.38;;;;;;;;;;6066744;23;20018;-78
2022/10/27 09:20:20;;;;;;;9.43;5.28;;;;;;;;;;6090810;23;20018;-78
2022/10/27 09:22:49;;;;;;;7.07;4.25;;;;;;;;;;6115931;23;20022;-77
2022/10/27 09:25:17;;;;;;;12.15;5.78;;;;;;;;;;6090549;23;20436;-78
2022/10/27 09:27:43;;;;;;;7.25;4.32;;;;;;;;;;6091154;23;20551;-78
2022/10/27 09:30:12;;;;;;;11.13;5.13;;;;;;;;;;6115093;23;20088;-78
2022/10/27 09:32:40;;;;;;;21.58;5.15;;;;;;;;;;6117234;23;20096;-78
2022/10/27 09:35:27;;;;;;;8.98;4.45;;;;;;;;;;6091346;23;20388;-78
2022/10/27 09:37:55;;;;;;;8.13;4.32;;;;;;;;;;6116668;23;20017;-77
2022/10/27 09:40:22;;;;;;;11.45;4.50;;;;;;;;;;6115970;23;20101;-78
2022/10/27 09:42:49;;;;;;;7.10;5.00;;;;;;;;;;6068024;23;20082;-78
2022/10/27 09:45:17;;;;;;;6.80;3.97;;;;;;;;;;6092447;23;20014;-78
2022/10/27 09:47:45;;;;;;;8.13;4.35;;;;;;;;;;6116028;23;20022;-78
2022/10/27 09:50:19;;;;;;;6.38;4.05;;;;;;;;;;6092066;23;20021;-78
2022/10/27 09:52:46;;;;;;;11.73;4.60;;;;;;;;;;6116893;23;20013;-78
2022/10/27 09:55:12;;;;;;;6.80;4.75;;;;;;;;;;6116097;23;20021;-78
2022/10/27 09:57:39;;;;;;;8.88;3.90;;;;;;;;;;6116110;23;20047;-78
2022/10/27 10:00:20;;;;;;;9.02;4.50;;;;;;;;;;6118740;23;20026;-78
2022/10/27 10:03:06;;;;;;;7.32;4.40;;;;;;;;;;6116841;23;20013;-78
2022/10/27 10:05:34;;;;;;;9.45;5.15;;;;;;;;;;6115809;23;20013;-78
2022/10/27 10:08:13;;;;;;;11.40;4.70;;;;;;;;;;6115857;23;20321;-78
2022/10/27 10:10:40;;;;;;;7.22;4.22;;;;;;;;;;6090640;23;20052;-78
2022/10/27 10:13:14;;;;;;;8.65;4.18;;;;;;;;;;6091265;23;20014;-77
2022/10/27 10:15:44;;;;;;;6.93;4.18;;;;;;;;;;6115077;23;20443;-78
2022/10/27 10:18:23;;;;;;;7.78;4.00;;;;;;;;;;6115818;23;20025;-78
2022/10/27 10:20:55;;;;;;;8.43;4.20;;;;;;;;;;6091657;23;20113;-78
2022/10/27 10:23:21;;;;;;;;;;;;;;;;;;6116852;23;20022;-78
2022/10/27 10:25:48;;;;;;;9.60;4.13;;;;;;;;;;6092420;23;20343;-78
2022/10/27 10:28:20;;;;;;;7.53;4.82;;;;;;;;;;6118579;23;20021;-78
2022/10/27 10:30:50;;;;;;;16.42;5.15;;;;;;;;;;6118068;23;20156;-78
2022/10/27 10:33:16;;;;;;;7.13;4.18;;;15.20;99.90;;;;;;6068845;23;20025;-78
2022/10/27 10:35:48;;;;;;;8.77;4.50;;;16.30;99.90;;;;;;6092558;23;20021;-77
2022/10/27 10:38:23;;;;;;;7.88;4.20;;;16.30;99.90;;;;;;6118155;23;20018;-77
2022/10/27 10:41:15;;;;;;;11.73;3.92;;;16.40;99.90;;;;;;6117855;23;20017;-77
2022/10/27 10:43:42;;;;;;;8.02;3.97;;;;;;;;;;6092136;23;20022;-77
2022/10/27 10:46:26;;;;;;;6.40;4.28;;;;;;;;;;6116555;23;20022;-77
2022/10/27 10:48:57;;;;;;;8.68;4.45;;;;;;;;;;6091886;23;20029;-77
2022/10/27 10:51:26;;;;;;;8.20;3.85;;;;;;;;;;6116593;23;20467;-77
2022/10/27 10:53:56;;;;;;;7.28;3.45;;;;;;;;;;6092321;23;20135;-77
2022/10/27 10:56:27;;;;;;;7.97;3.75;;;;;;;;;;6116129;23;20097;-78
2022/10/27 10:59:02;;;;;;;8.38;3.50;;;;;;;;;;6115855;23;20018;-78
2022/10/27 11:01:42;;;;;;;5.00;3.45;;;;;;;;;;6091315;23;20057;-77
2022/10/27 11:04:19;;;;;;;6.07;3.28;;;16.40;99.90;;;;;;6114766;23;20105;-77
2022/10/27 11:07:00;;;;;;;6.85;3.63;;;;;;;;;;6118710;23;20185;-77
2022/10/27 11:09:29;;;;;;;7.40;3.45;;;;;;;;;;6117045;23;20555;-77
2022/10/27 11:11:56;;;;;;;6.00;3.33;;;;;;;;;;6115653;23;20022;-77
2022/10/27 11:14:24;;;;;;;10.95;3.60;;;;;;;;;;6091565;23;20096;-78
2022/10/27 11:16:51;;;;;;;5.68;2.70;;;;;;;;;;6117710;23;20013;-78
2022/10/27 11:19:19;;;;;;;8.13;3.28;;;17.20;99.90;;;;;;6117847;23;20010;-78
2022/10/27 11:21:45;;;;;;;4.32;2.40;;;;;;;;;;6093838;23;20021;-78
2022/10/27 11:24:16;;;;;;;7.28;3.58;;;;;;;;;;6118310;23;20113;-77
2022/10/27 11:26:58;;;;;;;6.47;2.90;;;;;;;;;;6094705;23;20022;-77
2022/10/27 11:29:43;;;;;;;8.07;2.80;;;;;;;;;;6118449;23;20021;-78
2022/10/27 11:32:15;;;;;;;6.45;2.10;;;;;;;;;;6118052;23;20273;-78
2022/10/27 11:35:00;;;;;;;6.32;2.60;;;;;;;;;;6119018;23;20006;-78
2022/10/27 11:37:40;;;;;;;6.20;2.90;;;;;;;;;;6118964;23;20014;-78
2022/10/27 11:40:28;;;;;;;5.63;2.53;;;;;;;;;;6119718;23;20085;-78
2022/10/27 11:43:00;;;;;;;4.35;2.65;;;17.50;99.90;;;;;;6119027;23;20093;-78
2022/10/27 11:45:30;;;;;;;4.30;2.70;;;;;;;;;;6118785;23;20093;-78
2022/10/27 11:48:04;;;;;;;3.15;1.90;;;;;;;;;;6119005;23;20065;-78
2022/10/27 11:50:34;;;;;;;3.38;2.30;;;;;;;;;;6118982;23;20053;-78
2022/10/27 11:53:00;;;;;;;6.32;2.60;;;;;;;;;;6119680;23;20286;-78
2022/10/27 11:55:45;;;;;;;5.15;2.47;;;;;;;;;;6118868;23;20024;-78
2022/10/27 11:58:26;;;;;;;7.18;2.30;;;;;;;;;;6118808;23;20104;-78
2022/10/27 12:01:02;;;;;;;4.50;2.40;;;;;;;;;;6094364;23;20029;-78
2022/10/27 12:03:28;;;;;;;3.05;1.83;;;;;;;;;;6093771;23;20026;-78
2022/10/27 12:06:07;;;;;;;7.80;2.25;;;;;;;;;;6118791;23;20018;-78
2022/10/27 12:08:36;;;;;;;2.85;1.67;;;;;;;;;;6118411;23;20024;-77
2022/10/27 12:11:02;;;;;;;3.42;2.13;;;;;;;;;;6118141;23;20080;-78
2022/10/27 12:13:42;;;;;;;7.43;1.55;;;;;;;;;;6093455;23;20376;-78
2022/10/27 12:16:15;;;;;;;6.10;1.55;;;;;;;;;;6119140;23;20528;-78
2022/10/27 12:18:51;;;;;;;3.95;1.90;;;;;;;;;;6070641;23;20093;-78
2022/10/27 12:21:20;;;;;;;5.72;1.92;;;;;;;;;;6118856;23;20021;-78
2022/10/27 12:24:12;;;;;;;4.28;1.65;;;;;;;;;;6118211;23;20101;-77
2022/10/27 12:26:44;;;;;;;5.30;2.15;;;;;;;;;;6031790;23;20042;-78
2022/10/27 12:29:11;;;;;;;5.95;1.95;;;;;;;;;;6064952;23;20027;-77
2022/10/27 12:31:41;;;;;;;6.32;2.65;;;;;;;;;;6065818;23;20358;-77
2022/10/27 12:34:09;;;;;;;3.35;1.50;;;;;;;;;;6065337;23;20018;-77
2022/10/27 12:36:40;;;;;;;5.63;1.80;;;;;;;;;;6041454;23;20019;-78
2022/10/27 12:39:18;;;;;;;3.05;1.75;;;;;;;;;;6066039;23;20017;-78
2022/10/27 12:41:44;;;;;;;4.57;1.60;;;;;;;;;;6042257;23;20077;-77
2022/10/27 12:44:31;;;;;;;3.83;1.38;;;;;;;;;;6065525;23;20018;-77
2022/10/27 12:46:57;;;;;;;3.22;1.73;;;;;;;;;;6041376;23;20029;-77
2022/10/27 12:49:35;;;;;;;7.05;1.27;;;;;;;;;;6064768;23;20468;-77
2022/10/27 12:52:15;;;;;;;2.92;1.42;;;;;;;;;;6065612;23;20108;-77
2022/10/27 12:54:47;;;;;;;5.57;1.40;;;;;;;;;;6065844;23;20014;-77
2022/10/27 12:57:27;;;;;;;5.78;1.20;;;;;;;;;;6065191;23;20018;-77
2022/10/27 12:59:53;;;;;;;5.10;1.20;;;;;;;;;;6065058;23;20011;-77
2022/10/27 13:02:22;;;;;;;2.38;1.13;;;;;;;;;;6065253;23;20186;-77
2022/10/27 13:04:58;;;;;;;7.28;2.08;;;;;;;;;;6041414;23;20022;-77
2022/10/27 13:07:30;;;;;;;4.10;1.23;;;;;;;;;;6065098;23;20021;-77
2022/10/27 13:10:14;;;;;;;3.75;1.40;;;;;;;;;;6041369;23;20185;-77
2022/10/27 13:12:52;;;;;;;6.35;1.40;;;;;;;;;;6064312;23;20101;-77
2022/10/27 13:15:19;;;;;;;6.35;1.50;;;;;;;;;;6064972;23;20089;-77
2022/10/27 13:17:56;;;;;;;3.15;1.10;;;;;;;;;;6065246;23;20104;-77
2022/10/27 13:20:34;;;;;;;2.80;1.33;;;;;;;;;;6064670;23;20014;-77
2022/10/27 13:23:02;;;;;;;5.75;1.60;;;;;;;;;;6064909;23;20010;-77
2022/10/27 13:25:34;;;;;;;4.30;2.00;;;;;;;;;;6047736;23;20085;-77
2022/10/27 13:28:00;;;;;;;4.32;1.23;;;;;;;;;;6118288;23;20014;-77
2022/10/27 13:30:29;;;;;;;3.95;1.55;;;;;;;;;;6118096;23;20018;-78
2022/10/27 13:32:56;;;;;;;4.55;1.20;;;;;;;;;;6094140;23;20018;-77
2022/10/27 13:35:32;;;;;;;5.63;1.67;;;;;;;;;;6115390;23;20065;-77
2022/10/27 13:38:16;;;;;;;4.68;1.48;;;;;;;;;;6116174;23;20053;-77
2022/10/27 13:40:42;;;;;;;8.57;2.00;;;;;;;;;;6115871;23;20341;-78
2022/10/27 13:43:20;;;;;;;6.15;2.17;;;;;;;;;;6116301;23;20045;-78
2022/10/27 13:45:48;;;;;;;4.47;1.90;;;;;;;;;;6117301;23;20049;-77
2022/10/27 13:48:17;;;;;;;3.92;1.45;;;;;;;;;;6114311;23;20027;-77
2022/10/27 13:50:44;;;;;;;5.93;1.63;;;;;;;;;;6115201;23;20054;-77
2022/10/27 13:53:16;;;;;;;5.43;2.13;;;;;;;;;;6116152;23;20010;-77
2022/10/27 13:55:43;;;;;;;9.68;2.25;;;;;;;;;;6117078;23;20076;-77
2022/10/27 13:58:19;;;;;;;5.53;1.90;;;;;;;;;;6116674;23;20050;-77
2022/10/27 14:00:57;;;;;;;5.38;2.15;;;;;;;;;;6095256;23;20025;-77
2022/10/27 14:03:26;;;;;;;3.22;1.92;;;;;;;;;;6095770;23;20025;-77
2022/10/27 14:05:53;;;;;;;6.22;1.95;;;;;;;;;;6119979;23;20037;-79
2022/10/27 14:08:21;;;;;;;3.60;1.83;;;;;;;;;;6119927;23;20048;-77
2022/10/27 14:10:47;;;;;;;3.72;1.83;;;;;;;;;;6120016;23;20018;-77
2022/10/27 14:13:34;;;;;;;4.28;1.88;;;;;;;;;;6120116;23;20018;-77
2022/10/27 14:16:01;;;;;;;3.08;1.95;;;;;;;;;;6095939;23;20013;-78
2022/10/27 14:18:34;;;;;;;3.50;1.92;;;;;;;;;;6120263;23;20198;-77
2022/10/27 14:21:09;;;;;;;5.20;2.00;;;;;;;;;;6120001;23;20096;-78
2022/10/27 14:23:36;;;;;;;5.45;2.03;;;;;;;;;;6119809;23;20017;-79
2022/10/27 14:26:21;;;;;;;7.65;2.75;;;;;;;;;;6120612;23;20045;-78
2022/10/27 14:28:47;;;;;;;5.22;2.03;;;;;;;;;;6120108;23;20017;-77
2022/10/27 14:31:17;;;;;;;3.47;1.75;;;;;;;;;;6120203;23;20049;-78
2022/10/27 14:33:44;;;;;;;6.28;2.15;;;;;;;;;;6095495;23;20516;-78
2022/10/27 14:36:21;;;;;;;6.10;2.08;;;;;;;;;;6120586;23;20050;-78
2022/10/27 14:39:06;;;;;;;3.58;1.70;;;;;;;;;;6120065;23;20018;-78
2022/10/27 14:41:33;;;;;;;3.53;1.98;;;;;;;;;;6120336;23;20022;-79